createdAt,value
2019-05-06T00:01:57.524Z,7.69
2019-05-06T00:04:24.736Z,8.00
2019-05-06T00:06:50.739Z,7.75
2019-05-06T00:09:16.638Z,7.69
2019-05-06T00:11:44.715Z,7.94
2019-05-06T00:14:10.227Z,7.94
2019-05-06T00:16:36.157Z,7.75
2019-05-06T00:19:04.552Z,7.69
2019-05-06T00:21:29.747Z,7.75
2019-05-06T00:23:55.600Z,7.94
2019-05-06T00:26:24.333Z,7.81
2019-05-06T00:28:53.922Z,7.75
2019-05-06T00:31:24.098Z,7.75
2019-05-06T00:33:50.032Z,7.69
2019-05-06T00:36:16.082Z,7.75
2019-05-06T00:38:44.768Z,7.56
2019-05-06T00:41:18.549Z,7.56
2019-05-06T00:43:44.465Z,7.75
2019-05-06T00:46:10.316Z,7.69
2019-05-06T00:48:36.178Z,7.94
2019-05-06T00:51:04.304Z,7.94
2019-05-06T00:53:40.642Z,7.75
2019-05-06T00:56:06.467Z,7.81
2019-05-06T00:58:34.577Z,7.75
2019-05-06T01:01:00.037Z,7.81
2019-05-06T01:03:25.934Z,8.06
2019-05-06T01:05:53.994Z,8.06
2019-05-06T01:08:19.670Z,8.06
2019-05-06T01:10:45.532Z,7.94
2019-05-06T01:13:16.090Z,8.19
2019-05-06T01:15:43.593Z,8.00
2019-05-06T01:18:09.800Z,7.87
2019-05-06T01:20:35.851Z,8.06
2019-05-06T01:23:03.621Z,7.94
2019-05-06T01:25:29.474Z,7.81
2019-05-06T01:27:55.312Z,8.13
2019-05-06T01:30:21.254Z,7.94
2019-05-06T01:32:47.078Z,7.81
2019-05-06T01:35:14.038Z,8.06
2019-05-06T01:37:41.067Z,7.69
2019-05-06T01:40:14.851Z,7.81
2019-05-06T01:42:45.118Z,7.94
2019-05-06T01:45:11.362Z,7.81
2019-05-06T01:47:37.180Z,8.13
2019-05-06T01:50:04.632Z,7.94
2019-05-06T01:52:30.454Z,7.69
2019-05-06T01:54:56.418Z,7.75
2019-05-06T01:57:24.282Z,7.87
2019-05-06T01:59:50.039Z,7.94
2019-05-06T02:02:15.908Z,7.94
2019-05-06T02:04:41.721Z,7.62
2019-05-06T02:07:07.562Z,7.62
2019-05-06T02:09:34.256Z,7.69
2019-05-06T02:12:00.366Z,7.56
2019-05-06T02:14:26.197Z,7.62
2019-05-06T02:16:54.334Z,7.56
2019-05-06T02:19:19.803Z,7.31
2019-05-06T02:21:47.563Z,7.50
2019-05-06T02:24:21.162Z,7.50
2019-05-06T02:26:47.096Z,7.31
2019-05-06T02:29:17.661Z,7.25
2019-05-06T02:32:17.472Z,7.25
2019-05-06T02:34:36.500Z,7.31
2019-05-06T02:37:07.113Z,7.25
2019-05-06T02:39:34.106Z,7.06
2019-05-06T02:42:00.179Z,7.06
2019-05-06T02:44:26.084Z,7.00
2019-05-06T02:46:56.397Z,6.94
2019-05-06T02:49:32.971Z,7.06
2019-05-06T02:51:58.996Z,6.87
2019-05-06T02:54:24.820Z,6.94
2019-05-06T02:56:52.935Z,6.75
2019-05-06T02:59:18.382Z,6.81
2019-05-06T03:01:44.252Z,6.69
2019-05-06T03:04:12.946Z,6.69
2019-05-06T03:06:38.007Z,6.75
2019-05-06T03:09:04.676Z,6.50
2019-05-06T03:11:33.194Z,6.50
2019-05-06T03:13:58.618Z,6.69
2019-05-06T03:16:24.452Z,6.44
2019-05-06T03:18:53.096Z,6.31
2019-05-06T03:21:25.885Z,6.44
2019-05-06T03:23:54.173Z,6.19
2019-05-06T03:26:23.400Z,6.19
2019-05-06T03:28:48.455Z,6.12
2019-05-06T03:31:16.292Z,6.19
2019-05-06T03:34:03.768Z,6.00
2019-05-06T03:36:23.672Z,6.06
2019-05-06T03:38:37.497Z,6.19
2019-05-06T03:41:03.374Z,5.94
2019-05-06T03:43:29.343Z,5.81
2019-05-06T03:46:08.900Z,5.69
2019-05-06T03:48:44.207Z,5.81
2019-05-06T03:51:10.057Z,5.69
2019-05-06T03:53:35.906Z,5.75
2019-05-06T03:56:03.346Z,6.00
2019-05-06T03:58:34.602Z,5.81
2019-05-06T04:01:00.615Z,5.75
2019-05-06T04:03:42.424Z,5.81
2019-05-06T04:05:55.885Z,5.94
2019-05-06T04:08:24.144Z,5.69
2019-05-06T04:10:53.717Z,5.87
2019-05-06T04:13:19.641Z,5.87
2019-05-06T04:15:54.041Z,5.69
2019-05-06T04:18:23.785Z,5.75
2019-05-06T04:20:53.216Z,5.62
2019-05-06T04:23:23.478Z,5.87
2019-05-06T04:25:56.875Z,5.87
2019-05-06T04:28:33.962Z,5.81
2019-05-06T04:30:58.687Z,6.00
2019-05-06T04:33:24.789Z,5.94
2019-05-06T04:35:53.789Z,5.81
2019-05-06T04:38:23.224Z,5.75
2019-05-06T04:40:48.453Z,5.94
2019-05-06T04:43:14.482Z,6.06
2019-05-06T04:45:43.032Z,6.12
2019-05-06T04:48:08.318Z,6.19
2019-05-06T04:50:34.176Z,6.06
2019-05-06T04:53:04.668Z,6.00
2019-05-06T04:55:33.647Z,6.06
2019-05-06T04:58:04.032Z,6.19
2019-05-06T05:00:29.652Z,6.25
2019-05-06T05:02:55.504Z,6.25
2019-05-06T05:05:23.138Z,6.31
2019-05-06T05:07:49.091Z,6.25
2019-05-06T05:10:23.310Z,6.37
2019-05-06T05:13:05.830Z,6.25
2019-05-06T05:15:42.389Z,6.50
2019-05-06T05:18:27.053Z,6.31
2019-05-06T05:20:55.020Z,6.50
2019-05-06T05:23:22.843Z,6.62
2019-05-06T05:25:52.190Z,6.69
2019-05-06T05:28:18.287Z,7.06
2019-05-06T05:30:44.262Z,6.94
2019-05-06T05:33:16.204Z,6.87
2019-05-06T05:35:44.901Z,6.81
2019-05-06T05:38:13.862Z,7.12
2019-05-06T05:40:39.771Z,7.06
2019-05-06T05:43:25.710Z,7.00
2019-05-06T05:45:52.374Z,7.19
2019-05-06T05:48:26.288Z,7.06
2019-05-06T05:50:54.048Z,7.12
2019-05-06T05:53:19.993Z,7.31
2019-05-06T05:55:45.844Z,7.25
2019-05-06T05:58:12.963Z,7.19
2019-05-06T06:00:39.126Z,7.31
2019-05-06T06:03:07.089Z,7.25
2019-05-06T06:05:33.153Z,7.44
2019-05-06T06:07:59.255Z,7.50
2019-05-06T06:10:42.578Z,7.44
2019-05-06T06:13:08.958Z,7.62
2019-05-06T06:15:39.428Z,7.69
2019-05-06T06:18:15.178Z,7.69
2019-05-06T06:20:52.960Z,7.69
2019-05-06T06:23:23.620Z,7.87
2019-05-06T06:25:49.496Z,7.87
2019-05-06T06:28:15.532Z,8.00
2019-05-06T06:30:47.510Z,8.06
2019-05-06T06:33:13.428Z,8.00
2019-05-06T06:35:42.613Z,8.19
2019-05-06T06:38:16.062Z,8.25
2019-05-06T06:40:42.565Z,8.13
2019-05-06T06:43:12.466Z,8.31
2019-05-06T06:45:38.403Z,8.31
2019-05-06T06:48:04.297Z,8.38
2019-05-06T06:50:30.130Z,8.44
2019-05-06T06:52:56.014Z,8.44
2019-05-06T06:55:22.563Z,8.44
2019-05-06T06:57:51.993Z,8.50
2019-05-06T07:00:38.014Z,8.44
2019-05-06T07:03:08.854Z,8.56
2019-05-06T07:05:44.483Z,8.69
2019-05-06T07:08:12.543Z,8.81
2019-05-06T07:10:44.211Z,8.94
2019-05-06T07:13:12.195Z,8.88
2019-05-06T07:15:38.216Z,9.00
2019-05-06T07:18:04.059Z,9.00
2019-05-06T07:20:53.120Z,8.94
2019-05-06T07:23:38.942Z,9.06
2019-05-06T07:26:04.790Z,8.94
2019-05-06T07:28:32.647Z,9.06
2019-05-06T07:31:16.700Z,9.13
2019-05-06T07:33:26.379Z,9.31
2019-05-06T07:35:52.895Z,9.38
2019-05-06T07:38:19.250Z,9.25
2019-05-06T07:40:47.040Z,9.31
2019-05-06T07:43:26.719Z,9.44
2019-05-06T07:45:54.459Z,9.38
2019-05-06T07:48:22.151Z,9.44
2019-05-06T07:50:49.271Z,9.44
2019-05-06T07:53:15.308Z,9.31
2019-05-06T07:55:42.480Z,9.38
2019-05-06T07:58:08.474Z,9.44
2019-05-06T08:00:34.736Z,9.75
2019-05-06T08:03:02.531Z,9.75
2019-05-06T08:05:28.295Z,9.75
2019-05-06T08:07:55.183Z,9.69
2019-05-06T08:10:22.013Z,9.81
2019-05-06T08:12:47.993Z,9.94
2019-05-06T08:15:14.052Z,10.06
2019-05-06T08:17:42.424Z,10.06
2019-05-06T08:20:08.290Z,10.13
2019-05-06T08:22:52.950Z,10.19
2019-05-06T08:25:18.885Z,10.13
2019-05-06T08:27:44.735Z,10.25
2019-05-06T08:30:12.902Z,10.19
2019-05-06T08:32:38.974Z,10.25
2019-05-06T08:35:04.875Z,10.50
2019-05-06T08:37:32.698Z,10.75
2019-05-06T08:39:58.527Z,10.56
2019-05-06T08:42:26.271Z,10.69
2019-05-06T08:44:53.077Z,10.50
2019-05-06T08:47:19.052Z,10.69
2019-05-06T08:50:05.020Z,10.63
2019-05-06T08:52:49.247Z,10.56
2019-05-06T08:55:17.035Z,10.75
2019-05-06T08:57:43.057Z,10.69
2019-05-06T09:00:12.741Z,10.56
2019-05-06T09:02:37.991Z,10.38
2019-05-06T09:05:05.193Z,10.38
2019-05-06T09:07:31.998Z,10.44
2019-05-06T09:10:02.315Z,10.56
2019-05-06T09:12:27.961Z,10.75
2019-05-06T09:14:53.822Z,10.56
2019-05-06T09:17:22.501Z,10.56
2019-05-06T09:19:48.380Z,10.63
2019-05-06T09:22:14.238Z,10.75
2019-05-06T09:24:42.462Z,11.06
2019-05-06T09:27:09.759Z,10.94
2019-05-06T09:29:46.429Z,11.06
2019-05-06T09:32:14.292Z,11.06
2019-05-06T09:34:44.981Z,11.06
2019-05-06T09:37:13.638Z,11.06
2019-05-06T09:39:43.050Z,11.00
2019-05-06T09:42:12.827Z,10.88
2019-05-06T09:44:39.007Z,10.88
2019-05-06T09:47:06.856Z,10.94
2019-05-06T09:49:34.803Z,10.94
2019-05-06T09:52:02.521Z,11.19
2019-05-06T09:54:32.163Z,11.25
2019-05-06T09:57:08.836Z,11.44
2019-05-06T09:59:34.676Z,11.38
2019-05-06T10:02:00.540Z,11.38
2019-05-06T10:04:26.391Z,11.50
2019-05-06T10:06:59.468Z,11.69
2019-05-06T10:09:24.890Z,11.94
2019-05-06T10:11:52.416Z,11.88
2019-05-06T10:14:18.153Z,12.06
2019-05-06T10:16:44.132Z,12.25
2019-05-06T10:19:13.221Z,12.19
2019-05-06T10:21:39.357Z,12.13
2019-05-06T10:24:05.319Z,11.94
2019-05-06T10:26:33.212Z,11.94
2019-05-06T10:29:06.938Z,11.94
2019-05-06T10:31:34.819Z,12.06
2019-05-06T10:34:13.294Z,12.25
2019-05-06T10:36:53.331Z,11.88
2019-05-06T10:39:22.917Z,11.94
2019-05-06T10:41:52.503Z,11.69
2019-05-06T10:44:42.867Z,11.81
2019-05-06T10:47:08.535Z,11.75
2019-05-06T10:49:34.356Z,11.88
2019-05-06T10:52:04.641Z,11.75
2019-05-06T10:54:31.888Z,11.63
2019-05-06T10:57:02.514Z,11.75
2019-05-06T10:59:28.378Z,11.75
2019-05-06T11:02:05.407Z,11.75
2019-05-06T11:04:33.107Z,11.81
2019-05-06T11:06:59.738Z,11.69
2019-05-06T11:09:28.263Z,11.75
2019-05-06T11:11:54.128Z,11.94
2019-05-06T11:14:20.076Z,11.94
2019-05-06T11:16:45.913Z,11.94
2019-05-06T11:19:13.363Z,12.00
2019-05-06T11:21:39.429Z,11.94
2019-05-06T11:24:06.248Z,11.94
2019-05-06T11:26:32.274Z,11.88
2019-05-06T11:29:05.166Z,11.88
2019-05-06T11:31:32.943Z,11.88
2019-05-06T11:34:12.731Z,11.94
2019-05-06T11:36:42.298Z,12.31
2019-05-06T11:39:08.917Z,12.37
2019-05-06T11:41:34.861Z,12.37
2019-05-06T11:44:00.800Z,12.37
2019-05-06T11:46:26.758Z,12.75
2019-05-06T11:48:52.718Z,12.69
2019-05-06T11:51:22.975Z,12.56
2019-05-06T11:53:48.230Z,12.69
2019-05-06T11:56:14.273Z,13.13
2019-05-06T11:58:52.878Z,13.44
2019-05-06T12:01:36.683Z,13.38
2019-05-06T12:04:02.973Z,13.44
2019-05-06T12:06:29.442Z,13.31
2019-05-06T12:08:58.331Z,13.31
2019-05-06T12:11:24.154Z,13.06
2019-05-06T12:13:53.010Z,12.94
2019-05-06T12:16:18.279Z,12.88
2019-05-06T12:18:44.137Z,12.88
2019-05-06T12:21:16.115Z,12.75
2019-05-06T12:23:37.747Z,12.75
2019-05-06T12:26:03.846Z,12.69
2019-05-06T12:28:32.687Z,12.56
2019-05-06T12:30:58.539Z,12.63
2019-05-06T12:33:29.157Z,12.56
2019-05-06T12:35:55.229Z,12.56
2019-05-06T12:38:30.207Z,12.50
2019-05-06T12:40:52.894Z,12.69
2019-05-06T12:43:23.516Z,12.75
2019-05-06T12:45:53.139Z,12.69
2019-05-06T12:48:21.011Z,12.69
2019-05-06T12:50:46.855Z,12.69
2019-05-06T12:53:13.298Z,12.63
2019-05-06T12:55:39.363Z,12.81
2019-05-06T12:58:05.224Z,12.75
2019-05-06T13:00:34.205Z,12.69
2019-05-06T13:03:02.269Z,12.56
2019-05-06T13:05:28.449Z,12.56
2019-05-06T13:07:54.285Z,12.69
2019-05-06T13:10:22.841Z,12.75
2019-05-06T13:12:50.326Z,12.94
2019-05-06T13:15:16.171Z,13.00
2019-05-06T13:17:44.538Z,12.81
2019-05-06T13:20:14.169Z,12.88
2019-05-06T13:22:49.163Z,13.06
2019-05-06T13:25:15.111Z,13.31
2019-05-06T13:27:42.852Z,13.38
2019-05-06T13:30:09.001Z,13.38
2019-05-06T13:32:37.054Z,13.19
2019-05-06T13:35:04.717Z,13.00
2019-05-06T13:37:33.415Z,13.06
2019-05-06T13:39:58.374Z,13.13
2019-05-06T13:42:26.283Z,13.13
2019-05-06T13:44:52.208Z,13.19
2019-05-06T13:47:36.708Z,13.00
2019-05-06T13:50:05.483Z,13.19
2019-05-06T13:52:33.219Z,13.25
2019-05-06T13:54:59.116Z,13.13
2019-05-06T13:57:29.098Z,13.00
2019-05-06T13:59:55.621Z,12.81
2019-05-06T14:02:25.040Z,12.81
2019-05-06T14:04:52.777Z,12.81
2019-05-06T14:07:18.636Z,12.88
2019-05-06T14:09:44.514Z,12.88
2019-05-06T14:12:12.076Z,13.00
2019-05-06T14:14:38.003Z,13.00
2019-05-06T14:17:03.863Z,13.00
2019-05-06T14:19:33.131Z,13.06
2019-05-06T14:21:57.753Z,13.00
2019-05-06T14:24:23.746Z,13.00
2019-05-06T14:26:57.468Z,13.00
2019-05-06T14:29:23.289Z,13.19
2019-05-06T14:31:52.507Z,13.19
2019-05-06T14:34:18.569Z,13.19
2019-05-06T14:36:44.578Z,13.06
2019-05-06T14:39:18.465Z,13.06
2019-05-06T14:41:46.216Z,13.06
2019-05-06T14:44:12.270Z,13.00
2019-05-06T14:46:58.274Z,12.88
2019-05-06T14:49:24.143Z,12.88
2019-05-06T14:51:49.987Z,12.88
2019-05-06T14:54:15.826Z,12.88
2019-05-06T14:56:50.648Z,12.88
2019-05-06T14:59:16.536Z,12.94
2019-05-06T15:01:45.513Z,12.94
2019-05-06T15:04:12.322Z,12.75
2019-05-06T15:06:38.178Z,12.56
2019-05-06T15:09:05.815Z,12.44
2019-05-06T15:11:32.405Z,12.44
2019-05-06T15:13:58.480Z,12.50
2019-05-06T15:16:24.421Z,12.37
2019-05-06T15:18:50.260Z,12.44
2019-05-06T15:21:36.267Z,12.31
2019-05-06T15:23:43.889Z,12.37
2019-05-06T15:26:12.161Z,12.25
2019-05-06T15:28:37.565Z,12.13
2019-05-06T15:31:07.932Z,12.13
2019-05-06T15:33:35.704Z,12.06
2019-05-06T15:36:03.551Z,12.00
2019-05-06T15:38:30.490Z,12.06
2019-05-06T15:40:56.438Z,11.94
2019-05-06T15:43:22.281Z,11.94
2019-05-06T15:45:48.257Z,12.00
2019-05-06T15:48:14.219Z,11.94
2019-05-06T15:50:45.068Z,11.94
2019-05-06T15:53:12.464Z,11.88
2019-05-06T15:55:38.180Z,11.94
2019-05-06T15:58:04.039Z,11.88
2019-05-06T16:00:29.920Z,11.75
2019-05-06T16:02:55.862Z,11.63
2019-05-06T16:05:26.124Z,11.56
2019-05-06T16:07:49.733Z,11.56
2019-05-06T16:10:15.790Z,11.56
2019-05-06T16:12:46.831Z,11.63
2019-05-06T16:15:13.031Z,11.50
2019-05-06T16:17:39.073Z,11.44
2019-05-06T16:20:05.004Z,11.31
2019-05-06T16:22:31.134Z,11.31
2019-05-06T16:25:02.637Z,11.19
2019-05-06T16:27:28.569Z,11.25
2019-05-06T16:29:54.418Z,11.25
2019-05-06T16:32:21.972Z,11.12
2019-05-06T16:34:48.062Z,11.06
2019-05-06T16:37:16.846Z,11.25
2019-05-06T16:39:42.787Z,11.12
2019-05-06T16:42:09.761Z,10.88
2019-05-06T16:44:35.578Z,10.88
2019-05-06T16:47:02.926Z,10.75
2019-05-06T16:49:28.994Z,10.94
2019-05-06T16:51:55.154Z,10.94
2019-05-06T16:54:21.066Z,10.81
2019-05-06T16:57:05.741Z,10.75
2019-05-06T16:59:33.445Z,10.69
2019-05-06T17:02:01.631Z,10.63
2019-05-06T17:04:33.409Z,10.69
2019-05-06T17:06:59.554Z,10.69
2019-05-06T17:09:27.666Z,10.56
2019-05-06T17:11:53.151Z,10.56
2019-05-06T17:14:19.258Z,10.69
2019-05-06T17:16:45.109Z,10.50
2019-05-06T17:19:12.754Z,10.50
2019-05-06T17:21:38.726Z,10.63
2019-05-06T17:24:04.560Z,10.63
2019-05-06T17:26:30.415Z,10.63
2019-05-06T17:29:02.589Z,10.56
2019-05-06T17:31:32.266Z,10.63
2019-05-06T17:34:05.996Z,10.63
2019-05-06T17:36:33.766Z,10.50
2019-05-06T17:38:59.922Z,10.50
2019-05-06T17:41:30.692Z,10.50
2019-05-06T17:43:53.532Z,10.44
2019-05-06T17:46:22.219Z,10.44
2019-05-06T17:49:05.003Z,10.38
2019-05-06T17:51:34.614Z,10.50
2019-05-06T17:54:02.541Z,10.56
2019-05-06T17:56:28.367Z,10.56
2019-05-06T17:58:54.399Z,10.38
2019-05-06T18:01:23.269Z,10.31
2019-05-06T18:03:49.264Z,10.31
2019-05-06T18:06:15.187Z,10.19
2019-05-06T18:08:43.228Z,10.19
2019-05-06T18:11:09.137Z,10.19
2019-05-06T18:13:35.029Z,10.06
2019-05-06T18:16:00.851Z,9.94
2019-05-06T18:18:28.857Z,10.00
2019-05-06T18:20:54.459Z,10.00
2019-05-06T18:23:22.260Z,9.88
2019-05-06T18:25:48.119Z,9.81
2019-05-06T18:28:14.083Z,9.81
2019-05-06T18:30:40.062Z,9.88
2019-05-06T18:33:05.931Z,9.88
2019-05-06T18:35:32.115Z,9.88
2019-05-06T18:37:58.111Z,9.81
2019-05-06T18:40:24.096Z,9.69
2019-05-06T18:42:52.368Z,9.69
2019-05-06T18:45:18.008Z,9.63
2019-05-06T18:47:43.952Z,9.63
2019-05-06T18:50:12.469Z,9.56
2019-05-06T18:52:37.816Z,9.75
2019-05-06T18:55:04.787Z,9.56
2019-05-06T18:57:32.469Z,9.50
2019-05-06T18:59:59.239Z,9.50
2019-05-06T19:02:26.780Z,9.63
2019-05-06T19:04:54.808Z,9.50
2019-05-06T19:07:22.069Z,9.44
2019-05-06T19:09:52.206Z,9.56
2019-05-06T19:12:30.354Z,9.56
2019-05-06T19:14:45.569Z,9.50
2019-05-06T19:17:13.184Z,9.44
2019-05-06T19:19:39.192Z,9.44
2019-05-06T19:22:05.038Z,9.56
2019-05-06T19:24:31.632Z,9.38
2019-05-06T19:26:58.692Z,9.50
2019-05-06T19:29:24.567Z,9.31
2019-05-06T19:31:52.148Z,9.31
2019-05-06T19:34:34.578Z,9.38
2019-05-06T19:37:02.415Z,9.19
2019-05-06T19:39:28.502Z,9.19
2019-05-06T19:41:54.447Z,9.06
2019-05-06T19:44:22.102Z,9.19
2019-05-06T19:46:48.043Z,9.25
2019-05-06T19:49:13.922Z,9.06
2019-05-06T19:51:39.791Z,8.94
2019-05-06T19:54:05.751Z,9.06
2019-05-06T19:56:31.799Z,9.06
2019-05-06T19:58:57.664Z,9.13
2019-05-06T20:01:23.650Z,9.25
2019-05-06T20:03:49.566Z,9.13
2019-05-06T20:06:33.982Z,9.13
2019-05-06T20:09:02.382Z,9.00
2019-05-06T20:11:30.352Z,9.00
2019-05-06T20:13:56.256Z,8.94
2019-05-06T20:16:23.014Z,9.00
2019-05-06T20:18:49.043Z,8.88
2019-05-06T20:21:14.995Z,8.81
2019-05-06T20:23:42.533Z,9.00
2019-05-06T20:26:08.572Z,8.94
2019-05-06T20:28:36.544Z,8.88
2019-05-06T20:31:02.628Z,8.81
2019-05-06T20:33:32.548Z,8.94
2019-05-06T20:35:58.248Z,8.94
2019-05-06T20:38:24.128Z,8.94
2019-05-06T20:40:50.142Z,9.00
2019-05-06T20:43:20.745Z,9.19
2019-05-06T20:45:43.930Z,8.94
2019-05-06T20:48:09.867Z,8.81
2019-05-06T20:50:35.747Z,9.00
2019-05-06T20:53:01.719Z,8.94
2019-05-06T20:55:27.544Z,8.94
2019-05-06T20:57:53.374Z,8.94
2019-05-06T21:00:19.267Z,8.94
2019-05-06T21:02:45.116Z,9.00
2019-05-06T21:05:13.674Z,8.88
2019-05-06T21:07:39.367Z,8.81
2019-05-06T21:10:06.036Z,9.06
2019-05-06T21:12:33.726Z,9.00
2019-05-06T21:14:59.638Z,8.81
2019-05-06T21:17:25.502Z,8.81
2019-05-06T21:19:51.943Z,8.75
2019-05-06T21:22:18.353Z,8.69
2019-05-06T21:24:44.208Z,8.75
2019-05-06T21:27:12.234Z,8.75
2019-05-06T21:29:38.006Z,8.69
2019-05-06T21:32:03.976Z,8.81
2019-05-06T21:34:29.816Z,8.69
2019-05-06T21:36:55.669Z,8.94
2019-05-06T21:39:22.376Z,8.81
2019-05-06T21:41:48.684Z,8.81
2019-05-06T21:44:14.522Z,8.75
2019-05-06T21:46:42.693Z,8.69
2019-05-06T21:49:08.124Z,8.63
2019-05-06T21:51:33.960Z,8.75
2019-05-06T21:53:59.832Z,8.75
2019-05-06T21:56:25.654Z,8.69
2019-05-06T21:58:52.420Z,8.75
2019-05-06T22:01:18.466Z,8.63
2019-05-06T22:03:44.692Z,8.75
2019-05-06T22:06:12.839Z,8.75
2019-05-06T22:08:38.351Z,8.75
2019-05-06T22:11:04.280Z,8.69
2019-05-06T22:13:30.130Z,8.69
2019-05-06T22:15:55.982Z,8.63
2019-05-06T22:18:22.902Z,8.88
2019-05-06T22:21:07.657Z,8.63
2019-05-06T22:23:52.285Z,8.75
2019-05-06T22:26:18.327Z,8.63
2019-05-06T22:28:44.256Z,8.63
2019-05-06T22:31:11.700Z,8.63
2019-05-06T22:33:37.547Z,8.69
2019-05-06T22:36:03.585Z,8.94
2019-05-06T22:38:29.550Z,8.69
2019-05-06T22:40:55.418Z,8.88
2019-05-06T22:43:21.865Z,8.63
2019-05-06T22:45:47.921Z,8.69
2019-05-06T22:48:13.776Z,8.63
2019-05-06T22:50:42.452Z,8.63
2019-05-06T22:53:08.513Z,8.56
2019-05-06T22:55:34.447Z,8.56
2019-05-06T22:58:02.418Z,8.56
2019-05-06T23:00:29.802Z,8.63
2019-05-06T23:02:57.634Z,8.69
2019-05-06T23:05:23.801Z,8.56
2019-05-06T23:07:49.712Z,8.69
2019-05-06T23:10:15.588Z,8.69
2019-05-06T23:12:43.344Z,8.63
2019-05-06T23:15:09.185Z,8.63
2019-05-06T23:17:35.040Z,8.69
2019-05-06T23:20:02.320Z,8.69
2019-05-06T23:22:28.325Z,8.63
2019-05-06T23:24:54.259Z,8.69
2019-05-06T23:27:20.204Z,8.75
2019-05-06T23:29:46.044Z,8.75
2019-05-06T23:32:13.918Z,8.69
2019-05-06T23:34:39.660Z,8.63
2019-05-06T23:37:09.316Z,8.75
2019-05-06T23:40:14.489Z,8.69
2019-05-06T23:43:17.759Z,8.75
2019-05-06T23:46:22.681Z,8.63
2019-05-06T23:49:25.393Z,8.63
2019-05-06T23:52:28.821Z,8.50
2019-05-06T23:55:32.019Z,8.50
2019-05-06T23:57:57.911Z,8.63
